createdAt,value
2022-09-23T00:00:21.391Z,100767.38
2022-09-23T00:07:09.410Z,100764.28
2022-09-23T00:13:57.546Z,100759.06
2022-09-23T00:20:43.144Z,100753.34
2022-09-23T00:27:33.950Z,100745.72
2022-09-23T00:34:19.667Z,100752.25
2022-09-23T00:41:05.587Z,100752.88
2022-09-23T00:47:59.392Z,100665.97
2022-09-23T00:54:46.264Z,100742.47
2022-09-23T01:01:31.990Z,100747.66
2022-09-23T01:08:20.362Z,100736.75
2022-09-23T01:15:17.932Z,100725.50
2022-09-23T01:22:12.761Z,100731.97
2022-09-23T01:29:28.731Z,100684.56
2022-09-23T01:36:26.459Z,100714.19
2022-09-23T01:43:17.808Z,100664.34
2022-09-23T01:50:29.511Z,100711.69
2022-09-23T01:57:23.882Z,100716.72
2022-09-23T02:04:13.929Z,100722.31
2022-09-23T02:11:05.822Z,100645.16
2022-09-23T02:17:58.879Z,100712.88
2022-09-23T02:24:45.150Z,100707.66
2022-09-23T02:31:39.608Z,100695.81
2022-09-23T02:38:36.163Z,100661.56
2022-09-23T03:06:30.733Z,100678.16
2022-09-23T03:13:29.354Z,100664.84
2022-09-23T03:20:23.381Z,100661.03
2022-09-23T03:27:18.895Z,100633.66
2022-09-23T03:34:11.161Z,100674.53
2022-09-23T03:40:59.617Z,100661.19
2022-09-23T03:47:48.976Z,100641.53
2022-09-23T03:54:34.424Z,100596.81
2022-09-23T04:01:20.117Z,100632.38
2022-09-23T04:08:08.967Z,100648.09
2022-09-23T04:14:54.641Z,100610.44
2022-09-23T04:21:40.039Z,100651.28
2022-09-23T04:28:28.619Z,100627.06
2022-09-23T04:35:14.055Z,100654.97
2022-09-23T04:41:59.702Z,100659.84
2022-09-23T04:48:48.490Z,100662.75
2022-09-23T04:55:34.588Z,100666.16
2022-09-23T05:02:20.126Z,100672.06
2022-09-23T05:09:11.015Z,100666.47
2022-09-23T05:16:02.073Z,100651.56
2022-09-23T05:22:47.709Z,100676.53
2022-09-23T05:29:36.309Z,100674.59
2022-09-23T05:36:23.161Z,100669.94
2022-09-23T05:43:08.541Z,100660.16
2022-09-23T05:50:00.148Z,100674.59
2022-09-23T05:56:46.202Z,100696.53
2022-09-23T06:03:31.742Z,100686.34
2022-09-23T06:10:20.275Z,100691.31
2022-09-23T06:17:05.678Z,100680.94
2022-09-23T06:23:54.404Z,100760.06
2022-09-23T06:30:43.791Z,100671.13
2022-09-23T06:37:30.671Z,100596.94
2022-09-23T06:44:16.328Z,100680.50
2022-09-23T06:51:07.818Z,100666.94
2022-09-23T06:57:53.219Z,100673.34
2022-09-23T07:04:38.879Z,100676.81
2022-09-23T07:11:27.027Z,100668.88
2022-09-23T07:18:12.536Z,100674.75
2022-09-23T07:24:58.661Z,100577.16
2022-09-23T07:31:47.207Z,100665.81
2022-09-23T07:38:33.124Z,100685.19
2022-09-23T07:45:19.357Z,100674.50
2022-09-23T07:52:08.162Z,100597.91
2022-09-23T07:59:00.415Z,100693.63
2022-09-23T08:05:46.633Z,100697.91
2022-09-23T08:12:34.609Z,100700.88
2022-09-23T08:19:20.593Z,100699.28
2022-09-23T08:26:17.794Z,100663.38
2022-09-23T08:33:08.029Z,100687.31
2022-09-23T08:39:53.585Z,100702.19
2022-09-23T08:46:43.754Z,100692.25
2022-09-23T08:53:36.605Z,100697.34
2022-09-23T09:00:26.285Z,100679.00
2022-09-23T09:07:35.824Z,100689.19
2022-09-23T09:14:29.537Z,100677.22
2022-09-23T09:21:16.774Z,100677.72
2022-09-23T09:28:02.903Z,100670.53
2022-09-23T09:34:57.020Z,100551.63
2022-09-23T09:41:47.500Z,100639.41
2022-09-23T09:48:41.151Z,100643.25
2022-09-23T09:55:32.976Z,100629.97
2022-09-23T10:02:29.961Z,100614.66
2022-09-23T10:09:21.828Z,100551.13
2022-09-23T10:16:10.270Z,100597.66
2022-09-23T10:22:56.724Z,100607.75
2022-09-23T10:29:43.732Z,100597.16
2022-09-23T10:36:33.923Z,100590.50
2022-09-23T10:43:48.759Z,100582.97
2022-09-23T10:50:42.191Z,100584.13
2022-09-23T10:57:51.061Z,100580.66
2022-09-23T11:05:22.488Z,100571.50
2022-09-23T11:12:21.285Z,100554.09
2022-09-23T11:20:03.691Z,100550.00
2022-09-23T11:26:59.851Z,100541.72
2022-09-23T11:34:00.512Z,100539.41
2022-09-23T11:40:54.905Z,100531.38
2022-09-23T11:47:46.853Z,100449.88
2022-09-23T11:54:40.266Z,100512.88
2022-09-23T12:01:37.911Z,100512.59
2022-09-23T12:08:32.430Z,100505.69
2022-09-23T12:15:34.545Z,100496.22
2022-09-23T12:22:43.772Z,100484.28
2022-09-23T12:29:33.338Z,100486.59
2022-09-23T12:36:18.805Z,100488.66
2022-09-23T12:43:07.066Z,100477.16
2022-09-23T12:49:53.226Z,100470.25
2022-09-23T12:57:00.238Z,100462.13
2022-09-23T13:04:04.691Z,100456.16
2022-09-23T13:10:52.522Z,100451.34
2022-09-23T13:17:42.466Z,100452.38
2022-09-23T13:24:45.076Z,100437.16
2022-09-23T13:31:30.864Z,100378.69
2022-09-23T13:38:26.239Z,100375.59
2022-09-23T13:45:22.036Z,100415.56
2022-09-23T13:52:07.637Z,100410.34
2022-09-23T13:58:53.284Z,100403.44
2022-09-23T14:05:42.254Z,100382.44
2022-09-23T14:12:27.807Z,100386.66
2022-09-23T14:19:21.029Z,100371.03
2022-09-23T14:26:09.062Z,100376.38
2022-09-23T14:32:54.713Z,100268.31
2022-09-23T14:39:40.114Z,100372.94
2022-09-23T14:46:30.365Z,100363.81
2022-09-23T14:53:40.424Z,100340.22
2022-09-23T15:00:26.436Z,100345.09
2022-09-23T15:07:23.242Z,100348.31
2022-09-23T15:14:36.226Z,100348.66
2022-09-23T15:21:17.879Z,100343.50
2022-09-23T15:28:23.682Z,100334.69
2022-09-23T15:35:10.242Z,100344.69
2022-09-23T15:41:56.246Z,100351.06
2022-09-23T15:48:52.341Z,100347.84
2022-09-23T15:55:40.597Z,100340.69
2022-09-23T16:02:27.354Z,100333.44
2022-09-23T16:09:15.603Z,100294.38
2022-09-23T16:16:01.075Z,100324.53
2022-09-23T16:22:46.887Z,100330.94
2022-09-23T16:29:34.901Z,100314.88
2022-09-23T16:36:27.008Z,100315.66
2022-09-23T16:43:12.378Z,100326.44
2022-09-23T16:50:00.360Z,100309.56
2022-09-23T16:56:47.282Z,100263.16
2022-09-23T17:03:44.515Z,100325.47
2022-09-23T17:10:33.054Z,100301.78
2022-09-23T17:17:18.486Z,100323.28
2022-09-23T17:24:04.843Z,100318.00
2022-09-23T17:30:54.715Z,100316.25
2022-09-23T17:37:40.311Z,100310.22
2022-09-23T17:44:25.950Z,100314.97
2022-09-23T17:51:18.831Z,100298.97
2022-09-23T17:58:04.810Z,100281.72
2022-09-23T18:04:50.269Z,100317.88
2022-09-23T18:11:41.590Z,100306.56
2022-09-23T18:18:27.064Z,100309.19
2022-09-23T18:25:28.778Z,100251.94
2022-09-23T18:32:21.157Z,100298.81
2022-09-23T18:39:08.070Z,100306.66
2022-09-23T18:46:02.188Z,100312.44
2022-09-23T18:52:50.244Z,100299.09
2022-09-23T18:59:35.628Z,100295.47
2022-09-23T19:06:21.982Z,100296.59
2022-09-23T19:13:10.028Z,100293.91
2022-09-23T19:19:55.648Z,100295.16
2022-09-23T19:26:44.407Z,100291.53
2022-09-23T19:33:32.394Z,100289.69
2022-09-23T19:40:17.983Z,100296.34
2022-09-23T19:47:03.458Z,100289.88
2022-09-23T19:53:51.613Z,100283.69
2022-09-23T20:00:38.189Z,100091.91
2022-09-23T20:07:23.624Z,100283.34
2022-09-23T20:14:15.233Z,100287.03
2022-09-23T20:21:00.612Z,100279.78
2022-09-23T20:27:48.072Z,100279.94
2022-09-23T20:34:36.037Z,100209.13
2022-09-23T20:41:21.496Z,100278.03
2022-09-23T20:48:11.326Z,100263.16
2022-09-23T20:54:59.965Z,100255.28
2022-09-23T21:01:47.587Z,100263.44
2022-09-23T21:08:33.951Z,100223.81
2022-09-23T21:15:22.939Z,100251.38
2022-09-23T21:22:08.873Z,100249.94
2022-09-23T21:28:57.839Z,100246.91
2022-09-23T21:35:45.810Z,100206.50
2022-09-23T21:42:31.220Z,100262.97
2022-09-23T21:49:16.803Z,100260.72
2022-09-23T21:56:11.003Z,100251.50
2022-09-23T22:02:56.450Z,100273.38
2022-09-23T22:09:41.870Z,100214.31
2022-09-23T22:16:31.014Z,100265.44
2022-09-23T22:23:16.663Z,100280.75
2022-09-23T22:30:14.525Z,100277.44
2022-09-23T22:37:03.833Z,100276.00
2022-09-23T22:43:49.200Z,100273.94
2022-09-23T22:50:34.573Z,100274.66
2022-09-23T22:57:23.065Z,100256.63
2022-09-23T23:04:08.840Z,100255.38
2022-09-23T23:10:54.970Z,100252.13
2022-09-23T23:17:44.040Z,100243.28
2022-09-23T23:24:29.712Z,100227.66
2022-09-23T23:31:18.249Z,100215.47
2022-09-23T23:38:10.969Z,100188.88
2022-09-23T23:44:56.355Z,100216.75
2022-09-23T23:51:41.732Z,100218.75
2022-09-23T23:58:29.748Z,100211.50
